sensor_id;sensor_type;location;lat;lon;timestamp;P1;durP1;ratioP1;P2;durP2;ratioP2
38859;SDS011;24609;48.316;16.174;2023-07-29T00:01:23;5.22;;;3.47;;
38859;SDS011;24609;48.316;16.174;2023-07-29T00:03:49;3.75;;;3.35;;
38859;SDS011;24609;48.316;16.174;2023-07-29T00:06:14;4.15;;;3.08;;
38859;SDS011;24609;48.316;16.174;2023-07-29T00:08:40;5.75;;;3.30;;
38859;SDS011;24609;48.316;16.174;2023-07-29T00:11:06;4.95;;;3.70;;
38859;SDS011;24609;48.316;16.174;2023-07-29T00:13:32;3.20;;;2.90;;
38859;SDS011;24609;48.316;16.174;2023-07-29T00:15:59;5.60;;;3.28;;
38859;SDS011;24609;48.316;16.174;2023-07-29T00:18:24;4.00;;;3.60;;
38859;SDS011;24609;48.316;16.174;2023-07-29T00:20:50;5.45;;;3.45;;
38859;SDS011;24609;48.316;16.174;2023-07-29T00:23:17;6.57;;;3.53;;
38859;SDS011;24609;48.316;16.174;2023-07-29T00:25:44;3.65;;;3.35;;
38859;SDS011;24609;48.316;16.174;2023-07-29T00:28:10;3.70;;;3.30;;
38859;SDS011;24609;48.316;16.174;2023-07-29T00:30:36;3.95;;;3.40;;
38859;SDS011;24609;48.316;16.174;2023-07-29T00:33:02;3.65;;;3.30;;
38859;SDS011;24609;48.316;16.174;2023-07-29T00:35:27;4.00;;;3.50;;
38859;SDS011;24609;48.316;16.174;2023-07-29T00:37:53;3.80;;;3.28;;
38859;SDS011;24609;48.316;16.174;2023-07-29T00:40:19;4.20;;;3.15;;
38859;SDS011;24609;48.316;16.174;2023-07-29T00:42:46;5.72;;;3.70;;
38859;SDS011;24609;48.316;16.174;2023-07-29T00:45:12;5.00;;;4.05;;
38859;SDS011;24609;48.316;16.174;2023-07-29T00:47:39;3.75;;;3.38;;
38859;SDS011;24609;48.316;16.174;2023-07-29T00:50:05;3.92;;;3.25;;
38859;SDS011;24609;48.316;16.174;2023-07-29T00:52:32;5.20;;;3.45;;
38859;SDS011;24609;48.316;16.174;2023-07-29T00:54:57;4.72;;;4.28;;
38859;SDS011;24609;48.316;16.174;2023-07-29T00:57:23;3.63;;;3.22;;
38859;SDS011;24609;48.316;16.174;2023-07-29T00:59:50;4.10;;;3.33;;
38859;SDS011;24609;48.316;16.174;2023-07-29T01:02:17;4.03;;;3.63;;
38859;SDS011;24609;48.316;16.174;2023-07-29T01:04:42;4.22;;;3.50;;
38859;SDS011;24609;48.316;16.174;2023-07-29T01:15:18;4.15;;;3.63;;
38859;SDS011;24609;48.316;16.174;2023-07-29T01:17:55;4.55;;;3.88;;
38859;SDS011;24609;48.316;16.174;2023-07-29T01:20:29;4.80;;;3.58;;
38859;SDS011;24609;48.316;16.174;2023-07-29T01:23:02;4.93;;;3.90;;
38859;SDS011;24609;48.316;16.174;2023-07-29T01:25:27;4.30;;;3.80;;
38859;SDS011;24609;48.316;16.174;2023-07-29T01:27:53;4.32;;;3.90;;
38859;SDS011;24609;48.316;16.174;2023-07-29T01:30:20;6.57;;;3.90;;
38859;SDS011;24609;48.316;16.174;2023-07-29T01:32:55;5.90;;;3.75;;
38859;SDS011;24609;48.316;16.174;2023-07-29T01:38:40;5.43;;;3.80;;
38859;SDS011;24609;48.316;16.174;2023-07-29T01:40:49;4.28;;;3.88;;
38859;SDS011;24609;48.316;16.174;2023-07-29T01:43:16;4.07;;;3.65;;
38859;SDS011;24609;48.316;16.174;2023-07-29T01:45:43;4.07;;;3.67;;
38859;SDS011;24609;48.316;16.174;2023-07-29T01:48:09;4.65;;;4.10;;
38859;SDS011;24609;48.316;16.174;2023-07-29T01:50:35;4.88;;;3.53;;
38859;SDS011;24609;48.316;16.174;2023-07-29T01:53:00;5.20;;;3.78;;
38859;SDS011;24609;48.316;16.174;2023-07-29T01:55:26;4.45;;;3.53;;
38859;SDS011;24609;48.316;16.174;2023-07-29T01:57:52;4.55;;;3.75;;
38859;SDS011;24609;48.316;16.174;2023-07-29T02:00:18;5.07;;;4.07;;
38859;SDS011;24609;48.316;16.174;2023-07-29T02:02:44;4.80;;;3.70;;
38859;SDS011;24609;48.316;16.174;2023-07-29T02:05:10;4.80;;;4.32;;
38859;SDS011;24609;48.316;16.174;2023-07-29T02:07:36;6.80;;;3.70;;
38859;SDS011;24609;48.316;16.174;2023-07-29T02:10:01;4.32;;;3.92;;
38859;SDS011;24609;48.316;16.174;2023-07-29T02:12:27;5.15;;;4.22;;
38859;SDS011;24609;48.316;16.174;2023-07-29T02:14:53;3.83;;;3.45;;
38859;SDS011;24609;48.316;16.174;2023-07-29T02:17:19;4.40;;;4.00;;
38859;SDS011;24609;48.316;16.174;2023-07-29T02:19:45;3.92;;;3.30;;
38859;SDS011;24609;48.316;16.174;2023-07-29T02:22:12;4.57;;;3.85;;
38859;SDS011;24609;48.316;16.174;2023-07-29T02:24:39;4.57;;;4.15;;
38859;SDS011;24609;48.316;16.174;2023-07-29T02:27:04;4.75;;;3.80;;
38859;SDS011;24609;48.316;16.174;2023-07-29T02:29:30;5.07;;;3.85;;
38859;SDS011;24609;48.316;16.174;2023-07-29T02:31:58;4.63;;;3.58;;
38859;SDS011;24609;48.316;16.174;2023-07-29T02:34:24;5.18;;;3.63;;
38859;SDS011;24609;48.316;16.174;2023-07-29T02:36:50;4.68;;;3.78;;
38859;SDS011;24609;48.316;16.174;2023-07-29T02:39:15;3.65;;;3.35;;
38859;SDS011;24609;48.316;16.174;2023-07-29T02:41:41;3.33;;;3.03;;
38859;SDS011;24609;48.316;16.174;2023-07-29T02:44:07;3.90;;;3.22;;
38859;SDS011;24609;48.316;16.174;2023-07-29T02:46:33;4.53;;;3.47;;
38859;SDS011;24609;48.316;16.174;2023-07-29T02:48:58;5.68;;;3.10;;
38859;SDS011;24609;48.316;16.174;2023-07-29T02:51:24;4.30;;;3.55;;
38859;SDS011;24609;48.316;16.174;2023-07-29T02:53:50;5.78;;;3.33;;
38859;SDS011;24609;48.316;16.174;2023-07-29T02:56:15;3.65;;;3.17;;
38859;SDS011;24609;48.316;16.174;2023-07-29T02:58:41;5.25;;;3.45;;
38859;SDS011;24609;48.316;16.174;2023-07-29T03:01:07;4.97;;;3.45;;
38859;SDS011;24609;48.316;16.174;2023-07-29T03:03:33;4.63;;;3.67;;
38859;SDS011;24609;48.316;16.174;2023-07-29T03:06:03;4.65;;;3.47;;
38859;SDS011;24609;48.316;16.174;2023-07-29T03:08:29;4.18;;;2.90;;
38859;SDS011;24609;48.316;16.174;2023-07-29T03:10:58;3.63;;;3.28;;
38859;SDS011;24609;48.316;16.174;2023-07-29T03:13:29;3.72;;;3.00;;
38859;SDS011;24609;48.316;16.174;2023-07-29T03:16:03;4.57;;;3.30;;
38859;SDS011;24609;48.316;16.174;2023-07-29T03:18:30;3.15;;;2.85;;
38859;SDS011;24609;48.316;16.174;2023-07-29T03:20:56;3.80;;;3.38;;
38859;SDS011;24609;48.316;16.174;2023-07-29T03:23:21;3.80;;;3.10;;
38859;SDS011;24609;48.316;16.174;2023-07-29T03:25:50;4.90;;;3.20;;
38859;SDS011;24609;48.316;16.174;2023-07-29T03:28:21;3.78;;;2.63;;
38859;SDS011;24609;48.316;16.174;2023-07-29T03:30:52;3.20;;;2.70;;
38859;SDS011;24609;48.316;16.174;2023-07-29T03:33:18;2.78;;;2.55;;
38859;SDS011;24609;48.316;16.174;2023-07-29T03:35:44;4.50;;;2.85;;
38859;SDS011;24609;48.316;16.174;2023-07-29T03:38:10;4.75;;;2.85;;
38859;SDS011;24609;48.316;16.174;2023-07-29T03:40:39;2.78;;;2.47;;
38859;SDS011;24609;48.316;16.174;2023-07-29T03:43:06;3.63;;;3.10;;
38859;SDS011;24609;48.316;16.174;2023-07-29T03:45:32;3.83;;;2.67;;
38859;SDS011;24609;48.316;16.174;2023-07-29T03:47:58;3.40;;;2.65;;
38859;SDS011;24609;48.316;16.174;2023-07-29T03:50:24;4.38;;;2.80;;
38859;SDS011;24609;48.316;16.174;2023-07-29T03:52:50;3.30;;;2.47;;
38859;SDS011;24609;48.316;16.174;2023-07-29T03:55:16;3.20;;;2.75;;
38859;SDS011;24609;48.316;16.174;2023-07-29T03:57:41;3.25;;;2.47;;
38859;SDS011;24609;48.316;16.174;2023-07-29T04:00:07;3.38;;;2.70;;
38859;SDS011;24609;48.316;16.174;2023-07-29T04:05:03;3.72;;;2.60;;
38859;SDS011;24609;48.316;16.174;2023-07-29T04:07:29;3.63;;;2.63;;
38859;SDS011;24609;48.316;16.174;2023-07-29T04:09:55;3.03;;;2.58;;
38859;SDS011;24609;48.316;16.174;2023-07-29T04:12:21;3.83;;;2.75;;
38859;SDS011;24609;48.316;16.174;2023-07-29T04:14:48;2.90;;;2.20;;
38859;SDS011;24609;48.316;16.174;2023-07-29T04:17:13;3.05;;;2.42;;
38859;SDS011;24609;48.316;16.174;2023-07-29T04:19:39;3.08;;;2.70;;
38859;SDS011;24609;48.316;16.174;2023-07-29T04:22:05;2.97;;;2.65;;
38859;SDS011;24609;48.316;16.174;2023-07-29T04:24:30;4.10;;;2.90;;
38859;SDS011;24609;48.316;16.174;2023-07-29T04:26:56;3.55;;;2.83;;
38859;SDS011;24609;48.316;16.174;2023-07-29T04:29:22;3.13;;;2.70;;
38859;SDS011;24609;48.316;16.174;2023-07-29T04:31:48;4.70;;;2.85;;
38859;SDS011;24609;48.316;16.174;2023-07-29T04:34:14;3.05;;;2.53;;
38859;SDS011;24609;48.316;16.174;2023-07-29T04:36:40;4.35;;;2.50;;
38859;SDS011;24609;48.316;16.174;2023-07-29T04:39:06;3.22;;;2.63;;
38859;SDS011;24609;48.316;16.174;2023-07-29T04:41:32;3.75;;;2.40;;
38859;SDS011;24609;48.316;16.174;2023-07-29T04:43:58;2.67;;;2.25;;
38859;SDS011;24609;48.316;16.174;2023-07-29T04:46:24;3.22;;;2.65;;
38859;SDS011;24609;48.316;16.174;2023-07-29T04:48:49;3.28;;;2.47;;
38859;SDS011;24609;48.316;16.174;2023-07-29T04:51:15;4.30;;;2.80;;
38859;SDS011;24609;48.316;16.174;2023-07-29T04:53:41;4.00;;;2.33;;
38859;SDS011;24609;48.316;16.174;2023-07-29T04:56:06;2.65;;;2.20;;
38859;SDS011;24609;48.316;16.174;2023-07-29T04:58:32;3.00;;;2.42;;
38859;SDS011;24609;48.316;16.174;2023-07-29T05:01:00;2.90;;;2.42;;
38859;SDS011;24609;48.316;16.174;2023-07-29T05:03:29;3.55;;;2.80;;
38859;SDS011;24609;48.316;16.174;2023-07-29T05:05:55;3.70;;;2.63;;
38859;SDS011;24609;48.316;16.174;2023-07-29T05:08:23;3.25;;;2.45;;
38859;SDS011;24609;48.316;16.174;2023-07-29T05:10:49;3.08;;;2.65;;
38859;SDS011;24609;48.316;16.174;2023-07-29T05:13:16;3.22;;;2.92;;
38859;SDS011;24609;48.316;16.174;2023-07-29T05:15:42;3.63;;;2.78;;
38859;SDS011;24609;48.316;16.174;2023-07-29T05:18:07;3.08;;;2.75;;
38859;SDS011;24609;48.316;16.174;2023-07-29T05:20:33;2.92;;;2.42;;
38859;SDS011;24609;48.316;16.174;2023-07-29T05:22:58;3.13;;;2.50;;
38859;SDS011;24609;48.316;16.174;2023-07-29T05:25:25;3.10;;;2.50;;
38859;SDS011;24609;48.316;16.174;2023-07-29T05:27:51;4.03;;;2.00;;
38859;SDS011;24609;48.316;16.174;2023-07-29T05:30:17;3.70;;;2.17;;
38859;SDS011;24609;48.316;16.174;2023-07-29T05:32:42;3.42;;;2.38;;
38859;SDS011;24609;48.316;16.174;2023-07-29T05:35:08;3.28;;;2.28;;
38859;SDS011;24609;48.316;16.174;2023-07-29T05:37:35;2.53;;;1.80;;
38859;SDS011;24609;48.316;16.174;2023-07-29T05:40:03;2.20;;;1.92;;
38859;SDS011;24609;48.316;16.174;2023-07-29T05:42:29;2.95;;;2.10;;
38859;SDS011;24609;48.316;16.174;2023-07-29T05:44:55;3.33;;;2.08;;
38859;SDS011;24609;48.316;16.174;2023-07-29T05:47:20;2.05;;;1.85;;
38859;SDS011;24609;48.316;16.174;2023-07-29T05:49:46;3.10;;;2.10;;
38859;SDS011;24609;48.316;16.174;2023-07-29T05:52:12;2.67;;;2.30;;
38859;SDS011;24609;48.316;16.174;2023-07-29T05:54:37;2.55;;;2.20;;
38859;SDS011;24609;48.316;16.174;2023-07-29T05:57:03;2.72;;;2.20;;
38859;SDS011;24609;48.316;16.174;2023-07-29T05:59:29;2.47;;;1.85;;
38859;SDS011;24609;48.316;16.174;2023-07-29T06:01:55;2.67;;;1.88;;
38859;SDS011;24609;48.316;16.174;2023-07-29T06:04:21;2.92;;;2.00;;
38859;SDS011;24609;48.316;16.174;2023-07-29T06:06:47;2.75;;;2.00;;
38859;SDS011;24609;48.316;16.174;2023-07-29T06:09:12;2.63;;;1.80;;
38859;SDS011;24609;48.316;16.174;2023-07-29T06:11:38;3.80;;;1.80;;
38859;SDS011;24609;48.316;16.174;2023-07-29T06:14:04;5.20;;;2.13;;
38859;SDS011;24609;48.316;16.174;2023-07-29T06:16:29;2.90;;;2.03;;
38859;SDS011;24609;48.316;16.174;2023-07-29T06:18:55;2.65;;;2.00;;
38859;SDS011;24609;48.316;16.174;2023-07-29T06:21:21;3.00;;;1.95;;
38859;SDS011;24609;48.316;16.174;2023-07-29T06:23:47;4.57;;;2.15;;
38859;SDS011;24609;48.316;16.174;2023-07-29T06:26:13;2.63;;;1.88;;
38859;SDS011;24609;48.316;16.174;2023-07-29T06:28:39;3.33;;;1.88;;
38859;SDS011;24609;48.316;16.174;2023-07-29T06:31:04;3.08;;;1.88;;
38859;SDS011;24609;48.316;16.174;2023-07-29T06:33:30;2.13;;;1.60;;
38859;SDS011;24609;48.316;16.174;2023-07-29T06:35:56;2.10;;;1.55;;
38859;SDS011;24609;48.316;16.174;2023-07-29T06:38:21;2.92;;;1.80;;
38859;SDS011;24609;48.316;16.174;2023-07-29T06:40:48;3.13;;;1.90;;
38859;SDS011;24609;48.316;16.174;2023-07-29T06:43:13;2.35;;;1.77;;
38859;SDS011;24609;48.316;16.174;2023-07-29T06:45:39;3.85;;;2.00;;
38859;SDS011;24609;48.316;16.174;2023-07-29T06:48:05;2.25;;;1.67;;
38859;SDS011;24609;48.316;16.174;2023-07-29T06:50:31;3.03;;;1.90;;
38859;SDS011;24609;48.316;16.174;2023-07-29T06:52:56;1.60;;;1.40;;
38859;SDS011;24609;48.316;16.174;2023-07-29T06:55:22;2.38;;;1.85;;
38859;SDS011;24609;48.316;16.174;2023-07-29T06:57:47;1.92;;;1.67;;
38859;SDS011;24609;48.316;16.174;2023-07-29T07:00:13;1.65;;;1.48;;
38859;SDS011;24609;48.316;16.174;2023-07-29T07:02:39;2.03;;;1.70;;
38859;SDS011;24609;48.316;16.174;2023-07-29T07:05:05;3.58;;;1.42;;
38859;SDS011;24609;48.316;16.174;2023-07-29T07:07:30;2.35;;;1.55;;
38859;SDS011;24609;48.316;16.174;2023-07-29T07:09:56;1.77;;;1.23;;
38859;SDS011;24609;48.316;16.174;2023-07-29T07:12:22;2.70;;;1.45;;
38859;SDS011;24609;48.316;16.174;2023-07-29T07:14:47;1.55;;;1.23;;
38859;SDS011;24609;48.316;16.174;2023-07-29T07:17:13;1.70;;;1.50;;
38859;SDS011;24609;48.316;16.174;2023-07-29T07:19:39;2.47;;;1.33;;
38859;SDS011;24609;48.316;16.174;2023-07-29T07:22:05;2.28;;;1.23;;
38859;SDS011;24609;48.316;16.174;2023-07-29T07:24:30;2.95;;;1.08;;
38859;SDS011;24609;48.316;16.174;2023-07-29T07:26:56;2.17;;;1.48;;
38859;SDS011;24609;48.316;16.174;2023-07-29T07:29:22;1.95;;;1.05;;
38859;SDS011;24609;48.316;16.174;2023-07-29T07:31:51;1.40;;;1.13;;
38859;SDS011;24609;48.316;16.174;2023-07-29T07:34:18;1.60;;;1.35;;
38859;SDS011;24609;48.316;16.174;2023-07-29T07:36:45;1.88;;;1.38;;
38859;SDS011;24609;48.316;16.174;2023-07-29T07:39:11;1.60;;;1.40;;
38859;SDS011;24609;48.316;16.174;2023-07-29T07:41:37;2.03;;;1.25;;
38859;SDS011;24609;48.316;16.174;2023-07-29T07:44:02;2.08;;;1.38;;
38859;SDS011;24609;48.316;16.174;2023-07-29T07:46:28;3.67;;;1.38;;
38859;SDS011;24609;48.316;16.174;2023-07-29T07:48:54;1.30;;;1.02;;
38859;SDS011;24609;48.316;16.174;2023-07-29T07:51:20;1.35;;;1.00;;
38859;SDS011;24609;48.316;16.174;2023-07-29T07:53:45;1.75;;;1.30;;
38859;SDS011;24609;48.316;16.174;2023-07-29T07:56:11;1.50;;;1.10;;
38859;SDS011;24609;48.316;16.174;2023-07-29T07:58:37;1.55;;;1.10;;
38859;SDS011;24609;48.316;16.174;2023-07-29T08:01:03;2.00;;;1.38;;
38859;SDS011;24609;48.316;16.174;2023-07-29T08:03:30;1.63;;;1.30;;
38859;SDS011;24609;48.316;16.174;2023-07-29T08:05:56;2.22;;;0.93;;
38859;SDS011;24609;48.316;16.174;2023-07-29T08:08:22;2.08;;;1.10;;
38859;SDS011;24609;48.316;16.174;2023-07-29T08:10:47;1.55;;;1.00;;
38859;SDS011;24609;48.316;16.174;2023-07-29T08:13:13;1.13;;;0.98;;
38859;SDS011;24609;48.316;16.174;2023-07-29T08:15:39;1.17;;;0.90;;
38859;SDS011;24609;48.316;16.174;2023-07-29T08:18:06;1.30;;;1.10;;
38859;SDS011;24609;48.316;16.174;2023-07-29T08:20:31;1.40;;;1.00;;
38859;SDS011;24609;48.316;16.174;2023-07-29T08:22:57;2.17;;;1.10;;
38859;SDS011;24609;48.316;16.174;2023-07-29T08:25:23;1.60;;;1.15;;
38859;SDS011;24609;48.316;16.174;2023-07-29T08:27:49;1.40;;;1.08;;
38859;SDS011;24609;48.316;16.174;2023-07-29T08:30:15;1.50;;;1.10;;
38859;SDS011;24609;48.316;16.174;2023-07-29T08:32:41;1.42;;;1.10;;
38859;SDS011;24609;48.316;16.174;2023-07-29T08:35:07;1.00;;;0.88;;
38859;SDS011;24609;48.316;16.174;2023-07-29T08:37:33;1.83;;;1.10;;
38859;SDS011;24609;48.316;16.174;2023-07-29T08:39:59;3.70;;;1.30;;
38859;SDS011;24609;48.316;16.174;2023-07-29T08:42:26;1.70;;;1.10;;
38859;SDS011;24609;48.316;16.174;2023-07-29T08:44:56;1.15;;;0.90;;
38859;SDS011;24609;48.316;16.174;2023-07-29T08:47:26;2.45;;;0.95;;
38859;SDS011;24609;48.316;16.174;2023-07-29T08:49:52;1.17;;;1.00;;
38859;SDS011;24609;48.316;16.174;2023-07-29T08:52:20;1.23;;;0.90;;
38859;SDS011;24609;48.316;16.174;2023-07-29T08:54:46;1.05;;;0.90;;
38859;SDS011;24609;48.316;16.174;2023-07-29T08:57:13;1.73;;;1.13;;
38859;SDS011;24609;48.316;16.174;2023-07-29T08:59:39;2.33;;;0.98;;
38859;SDS011;24609;48.316;16.174;2023-07-29T09:02:05;1.85;;;0.90;;
38859;SDS011;24609;48.316;16.174;2023-07-29T09:04:31;1.10;;;1.00;;
38859;SDS011;24609;48.316;16.174;2023-07-29T09:06:57;1.10;;;1.00;;
38859;SDS011;24609;48.316;16.174;2023-07-29T09:09:25;2.22;;;1.10;;
38859;SDS011;24609;48.316;16.174;2023-07-29T09:11:50;1.40;;;0.90;;
38859;SDS011;24609;48.316;16.174;2023-07-29T09:14:17;2.92;;;1.35;;
38859;SDS011;24609;48.316;16.174;2023-07-29T09:16:43;1.65;;;0.90;;
38859;SDS011;24609;48.316;16.174;2023-07-29T09:19:09;1.20;;;1.05;;
38859;SDS011;24609;48.316;16.174;2023-07-29T09:21:37;2.25;;;1.05;;
38859;SDS011;24609;48.316;16.174;2023-07-29T09:24:04;2.13;;;1.05;;
38859;SDS011;24609;48.316;16.174;2023-07-29T09:26:32;1.73;;;0.90;;
38859;SDS011;24609;48.316;16.174;2023-07-29T09:28:59;1.73;;;1.08;;
38859;SDS011;24609;48.316;16.174;2023-07-29T09:31:25;1.83;;;1.10;;
38859;SDS011;24609;48.316;16.174;2023-07-29T09:33:55;1.25;;;1.10;;
38859;SDS011;24609;48.316;16.174;2023-07-29T09:36:23;1.67;;;0.85;;
38859;SDS011;24609;48.316;16.174;2023-07-29T09:38:51;1.27;;;0.93;;
38859;SDS011;24609;48.316;16.174;2023-07-29T09:41:24;2.70;;;1.55;;
38859;SDS011;24609;48.316;16.174;2023-07-29T09:43:59;1.33;;;0.90;;
38859;SDS011;24609;48.316;16.174;2023-07-29T09:46:31;1.40;;;1.10;;
38859;SDS011;24609;48.316;16.174;2023-07-29T09:48:59;3.50;;;1.00;;
38859;SDS011;24609;48.316;16.174;2023-07-29T09:51:26;1.87;;;0.93;;
38859;SDS011;24609;48.316;16.174;2023-07-29T09:53:52;0.88;;;0.82;;
38859;SDS011;24609;48.316;16.174;2023-07-29T09:56:18;1.45;;;0.90;;
38859;SDS011;24609;48.316;16.174;2023-07-29T09:58:52;1.75;;;1.17;;
38859;SDS011;24609;48.316;16.174;2023-07-29T10:01:18;1.50;;;1.10;;
38859;SDS011;24609;48.316;16.174;2023-07-29T10:03:44;1.30;;;0.80;;
38859;SDS011;24609;48.316;16.174;2023-07-29T10:06:10;1.10;;;0.75;;
38859;SDS011;24609;48.316;16.174;2023-07-29T10:08:37;0.82;;;0.63;;
38859;SDS011;24609;48.316;16.174;2023-07-29T10:11:08;1.92;;;0.90;;
38859;SDS011;24609;48.316;16.174;2023-07-29T10:13:34;1.55;;;0.70;;
38859;SDS011;24609;48.316;16.174;2023-07-29T10:16:02;1.27;;;0.73;;
38859;SDS011;24609;48.316;16.174;2023-07-29T10:18:29;2.38;;;0.98;;
38859;SDS011;24609;48.316;16.174;2023-07-29T10:20:56;1.10;;;0.80;;
38859;SDS011;24609;48.316;16.174;2023-07-29T10:25:53;0.60;;;0.60;;
38859;SDS011;24609;48.316;16.174;2023-07-29T10:28:28;1.27;;;0.80;;
38859;SDS011;24609;48.316;16.174;2023-07-29T10:30:56;1.40;;;1.00;;
38859;SDS011;24609;48.316;16.174;2023-07-29T10:33:23;0.90;;;0.80;;
38859;SDS011;24609;48.316;16.174;2023-07-29T10:35:49;0.90;;;0.80;;
38859;SDS011;24609;48.316;16.174;2023-07-29T10:38:16;0.98;;;0.80;;
38859;SDS011;24609;48.316;16.174;2023-07-29T10:40:46;1.60;;;0.80;;
38859;SDS011;24609;48.316;16.174;2023-07-29T10:51:22;1.20;;;1.10;;
38859;SDS011;24609;48.316;16.174;2023-07-29T10:53:55;1.35;;;0.82;;
38859;SDS011;24609;48.316;16.174;2023-07-29T10:58:56;1.13;;;1.02;;
38859;SDS011;24609;48.316;16.174;2023-07-29T11:01:43;1.45;;;0.98;;
38859;SDS011;24609;48.316;16.174;2023-07-29T11:15:12;0.98;;;0.85;;
38859;SDS011;24609;48.316;16.174;2023-07-29T11:20:10;0.82;;;0.82;;
38859;SDS011;24609;48.316;16.174;2023-07-29T11:22:37;1.63;;;0.98;;
38859;SDS011;24609;48.316;16.174;2023-07-29T11:25:03;1.63;;;1.25;;
38859;SDS011;24609;48.316;16.174;2023-07-29T11:27:30;1.17;;;1.08;;
38859;SDS011;24609;48.316;16.174;2023-07-29T11:29:57;1.73;;;0.90;;
38859;SDS011;24609;48.316;16.174;2023-07-29T11:32:23;3.60;;;1.15;;
38859;SDS011;24609;48.316;16.174;2023-07-29T11:34:50;2.65;;;1.10;;
38859;SDS011;24609;48.316;16.174;2023-07-29T11:37:16;1.80;;;1.30;;
38859;SDS011;24609;48.316;16.174;2023-07-29T11:39:42;2.05;;;1.00;;
38859;SDS011;24609;48.316;16.174;2023-07-29T11:42:12;3.97;;;1.20;;
38859;SDS011;24609;48.316;16.174;2023-07-29T11:44:38;2.70;;;1.30;;
38859;SDS011;24609;48.316;16.174;2023-07-29T11:47:07;1.10;;;1.00;;
38859;SDS011;24609;48.316;16.174;2023-07-29T11:49:37;2.80;;;1.13;;
38859;SDS011;24609;48.316;16.174;2023-07-29T11:52:06;2.17;;;1.05;;
38859;SDS011;24609;48.316;16.174;2023-07-29T11:54:36;1.42;;;1.20;;
38859;SDS011;24609;48.316;16.174;2023-07-29T11:57:04;1.17;;;1.08;;
38859;SDS011;24609;48.316;16.174;2023-07-29T11:59:33;1.75;;;1.20;;
38859;SDS011;24609;48.316;16.174;2023-07-29T12:02:09;2.25;;;1.17;;
38859;SDS011;24609;48.316;16.174;2023-07-29T12:04:40;1.55;;;1.20;;
38859;SDS011;24609;48.316;16.174;2023-07-29T12:07:06;1.17;;;1.00;;
38859;SDS011;24609;48.316;16.174;2023-07-29T12:09:33;1.40;;;1.30;;
38859;SDS011;24609;48.316;16.174;2023-07-29T12:12:03;5.88;;;1.10;;
38859;SDS011;24609;48.316;16.174;2023-07-29T12:14:30;2.55;;;1.35;;
38859;SDS011;24609;48.316;16.174;2023-07-29T12:16:56;2.50;;;1.25;;
38859;SDS011;24609;48.316;16.174;2023-07-29T12:19:30;2.97;;;1.30;;
38859;SDS011;24609;48.316;16.174;2023-07-29T12:22:01;1.45;;;1.30;;
38859;SDS011;24609;48.316;16.174;2023-07-29T12:24:29;2.20;;;1.50;;
38859;SDS011;24609;48.316;16.174;2023-07-29T12:29:21;5.57;;;1.42;;
38859;SDS011;24609;48.316;16.174;2023-07-29T12:31:47;2.50;;;1.60;;
38859;SDS011;24609;48.316;16.174;2023-07-29T12:34:20;2.40;;;1.52;;
38859;SDS011;24609;48.316;16.174;2023-07-29T12:36:47;2.47;;;1.10;;
38859;SDS011;24609;48.316;16.174;2023-07-29T12:41:47;1.23;;;0.70;;
38859;SDS011;24609;48.316;16.174;2023-07-29T12:44:14;1.20;;;0.90;;
38859;SDS011;24609;48.316;16.174;2023-07-29T12:46:40;2.35;;;1.30;;
38859;SDS011;24609;48.316;16.174;2023-07-29T12:49:06;1.92;;;0.80;;
38859;SDS011;24609;48.316;16.174;2023-07-29T12:51:31;4.32;;;1.38;;
38859;SDS011;24609;48.316;16.174;2023-07-29T12:53:57;1.23;;;0.98;;
38859;SDS011;24609;48.316;16.174;2023-07-29T12:56:23;2.92;;;1.50;;
38859;SDS011;24609;48.316;16.174;2023-07-29T12:58:49;1.83;;;1.10;;
38859;SDS011;24609;48.316;16.174;2023-07-29T13:01:14;2.72;;;1.20;;
38859;SDS011;24609;48.316;16.174;2023-07-29T13:03:43;4.00;;;1.10;;
38859;SDS011;24609;48.316;16.174;2023-07-29T13:06:09;2.53;;;1.25;;
38859;SDS011;24609;48.316;16.174;2023-07-29T13:08:35;2.63;;;1.27;;
38859;SDS011;24609;48.316;16.174;2023-07-29T13:11:01;4.90;;;1.20;;
38859;SDS011;24609;48.316;16.174;2023-07-29T13:13:27;2.13;;;1.20;;
38859;SDS011;24609;48.316;16.174;2023-07-29T13:15:53;1.70;;;1.20;;
38859;SDS011;24609;48.316;16.174;2023-07-29T13:18:18;2.35;;;1.23;;
38859;SDS011;24609;48.316;16.174;2023-07-29T13:20:44;1.75;;;1.30;;
38859;SDS011;24609;48.316;16.174;2023-07-29T13:23:10;10.95;;;2.00;;
38859;SDS011;24609;48.316;16.174;2023-07-29T13:25:35;1.50;;;1.40;;
38859;SDS011;24609;48.316;16.174;2023-07-29T13:28:01;2.53;;;1.52;;
38859;SDS011;24609;48.316;16.174;2023-07-29T13:30:26;2.58;;;1.30;;
38859;SDS011;24609;48.316;16.174;2023-07-29T13:32:52;1.90;;;1.33;;
38859;SDS011;24609;48.316;16.174;2023-07-29T13:35:18;1.55;;;1.23;;
38859;SDS011;24609;48.316;16.174;2023-07-29T13:37:43;1.40;;;1.30;;
38859;SDS011;24609;48.316;16.174;2023-07-29T13:40:09;1.52;;;1.40;;
38859;SDS011;24609;48.316;16.174;2023-07-29T13:42:35;3.45;;;1.60;;
38859;SDS011;24609;48.316;16.174;2023-07-29T13:45:01;1.38;;;1.20;;
38859;SDS011;24609;48.316;16.174;2023-07-29T13:47:27;4.22;;;1.80;;
38859;SDS011;24609;48.316;16.174;2023-07-29T13:49:53;2.05;;;1.27;;
38859;SDS011;24609;48.316;16.174;2023-07-29T13:52:19;1.95;;;1.40;;
38859;SDS011;24609;48.316;16.174;2023-07-29T13:54:44;3.78;;;1.55;;
38859;SDS011;24609;48.316;16.174;2023-07-29T13:57:10;1.90;;;1.40;;
38859;SDS011;24609;48.316;16.174;2023-07-29T13:59:36;2.95;;;1.15;;
38859;SDS011;24609;48.316;16.174;2023-07-29T14:02:05;2.13;;;1.20;;
38859;SDS011;24609;48.316;16.174;2023-07-29T14:04:31;1.50;;;1.40;;
38859;SDS011;24609;48.316;16.174;2023-07-29T14:06:57;2.15;;;1.20;;
38859;SDS011;24609;48.316;16.174;2023-07-29T14:09:23;1.38;;;1.10;;
38859;SDS011;24609;48.316;16.174;2023-07-29T14:11:50;2.10;;;1.40;;
38859;SDS011;24609;48.316;16.174;2023-07-29T14:14:15;1.63;;;1.20;;
38859;SDS011;24609;48.316;16.174;2023-07-29T14:16:41;2.13;;;1.10;;
38859;SDS011;24609;48.316;16.174;2023-07-29T14:19:07;5.82;;;1.65;;
38859;SDS011;24609;48.316;16.174;2023-07-29T14:21:32;1.30;;;1.20;;
38859;SDS011;24609;48.316;16.174;2023-07-29T14:23:58;1.58;;;1.45;;
38859;SDS011;24609;48.316;16.174;2023-07-29T14:26:24;14.07;;;1.92;;
38859;SDS011;24609;48.316;16.174;2023-07-29T14:28:49;1.50;;;1.40;;
38859;SDS011;24609;48.316;16.174;2023-07-29T14:31:15;2.75;;;1.30;;
38859;SDS011;24609;48.316;16.174;2023-07-29T14:33:44;1.20;;;1.10;;
38859;SDS011;24609;48.316;16.174;2023-07-29T14:36:10;1.33;;;1.20;;
38859;SDS011;24609;48.316;16.174;2023-07-29T14:38:36;2.42;;;1.23;;
38859;SDS011;24609;48.316;16.174;2023-07-29T14:41:02;2.47;;;1.23;;
38859;SDS011;24609;48.316;16.174;2023-07-29T14:43:29;8.75;;;2.03;;
38859;SDS011;24609;48.316;16.174;2023-07-29T14:45:55;3.22;;;1.67;;
38859;SDS011;24609;48.316;16.174;2023-07-29T14:48:21;2.78;;;1.38;;
38859;SDS011;24609;48.316;16.174;2023-07-29T14:50:47;1.35;;;1.25;;
38859;SDS011;24609;48.316;16.174;2023-07-29T14:53:13;2.22;;;1.40;;
38859;SDS011;24609;48.316;16.174;2023-07-29T14:55:39;3.00;;;1.38;;
38859;SDS011;24609;48.316;16.174;2023-07-29T14:58:04;2.45;;;1.65;;
38859;SDS011;24609;48.316;16.174;2023-07-29T15:00:30;1.88;;;1.58;;
38859;SDS011;24609;48.316;16.174;2023-07-29T15:02:56;3.20;;;1.52;;
38859;SDS011;24609;48.316;16.174;2023-07-29T15:05:21;1.73;;;1.50;;
38859;SDS011;24609;48.316;16.174;2023-07-29T15:07:47;3.25;;;1.40;;
38859;SDS011;24609;48.316;16.174;2023-07-29T15:10:16;1.92;;;1.58;;
38859;SDS011;24609;48.316;16.174;2023-07-29T15:12:43;2.03;;;1.40;;
38859;SDS011;24609;48.316;16.174;2023-07-29T15:15:09;2.13;;;1.58;;